sensor_id;sensor_type;location;lat;lon;timestamp;P1;durP1;ratioP1;P2;durP2;ratioP2
14776;SDS011;7480;43.124;25.686;2023-05-10T00:00:14;10.10;;;5.90;;
14776;SDS011;7480;43.124;25.686;2023-05-10T00:02:41;9.03;;;5.93;;
14776;SDS011;7480;43.124;25.686;2023-05-10T00:05:08;9.67;;;6.67;;
14776;SDS011;7480;43.124;25.686;2023-05-10T00:07:34;9.43;;;6.20;;
14776;SDS011;7480;43.124;25.686;2023-05-10T00:10:01;8.13;;;5.83;;
14776;SDS011;7480;43.124;25.686;2023-05-10T00:12:27;9.00;;;5.13;;
14776;SDS011;7480;43.124;25.686;2023-05-10T00:14:53;7.93;;;6.17;;
14776;SDS011;7480;43.124;25.686;2023-05-10T00:17:20;7.37;;;5.93;;
14776;SDS011;7480;43.124;25.686;2023-05-10T00:19:47;12.60;;;7.67;;
14776;SDS011;7480;43.124;25.686;2023-05-10T00:22:13;7.47;;;5.80;;
14776;SDS011;7480;43.124;25.686;2023-05-10T00:24:40;9.27;;;6.40;;
14776;SDS011;7480;43.124;25.686;2023-05-10T00:27:06;6.90;;;5.63;;
14776;SDS011;7480;43.124;25.686;2023-05-10T00:29:33;6.73;;;5.33;;
14776;SDS011;7480;43.124;25.686;2023-05-10T00:32:00;9.00;;;6.23;;
14776;SDS011;7480;43.124;25.686;2023-05-10T00:34:26;10.27;;;6.53;;
14776;SDS011;7480;43.124;25.686;2023-05-10T00:36:53;9.80;;;6.40;;
14776;SDS011;7480;43.124;25.686;2023-05-10T00:39:19;13.17;;;6.90;;
14776;SDS011;7480;43.124;25.686;2023-05-10T00:41:46;7.60;;;6.07;;
14776;SDS011;7480;43.124;25.686;2023-05-10T00:44:12;8.47;;;6.17;;
14776;SDS011;7480;43.124;25.686;2023-05-10T00:46:39;8.53;;;6.30;;
14776;SDS011;7480;43.124;25.686;2023-05-10T00:49:06;7.07;;;5.87;;
14776;SDS011;7480;43.124;25.686;2023-05-10T00:51:32;7.30;;;5.67;;
14776;SDS011;7480;43.124;25.686;2023-05-10T00:53:59;6.37;;;5.50;;
14776;SDS011;7480;43.124;25.686;2023-05-10T00:56:25;11.10;;;5.93;;
14776;SDS011;7480;43.124;25.686;2023-05-10T00:58:53;9.77;;;6.60;;
14776;SDS011;7480;43.124;25.686;2023-05-10T01:01:19;8.37;;;6.13;;
14776;SDS011;7480;43.124;25.686;2023-05-10T01:03:46;9.03;;;6.63;;
14776;SDS011;7480;43.124;25.686;2023-05-10T01:06:13;8.27;;;6.30;;
14776;SDS011;7480;43.124;25.686;2023-05-10T01:08:39;7.33;;;5.90;;
14776;SDS011;7480;43.124;25.686;2023-05-10T01:11:06;8.67;;;6.10;;
14776;SDS011;7480;43.124;25.686;2023-05-10T01:13:35;7.50;;;6.50;;
14776;SDS011;7480;43.124;25.686;2023-05-10T01:16:02;12.13;;;6.87;;
14776;SDS011;7480;43.124;25.686;2023-05-10T01:18:30;11.00;;;6.77;;
14776;SDS011;7480;43.124;25.686;2023-05-10T01:21:06;6.80;;;5.40;;
14776;SDS011;7480;43.124;25.686;2023-05-10T01:23:45;10.77;;;6.73;;
14776;SDS011;7480;43.124;25.686;2023-05-10T01:26:23;9.00;;;6.50;;
14776;SDS011;7480;43.124;25.686;2023-05-10T01:29:09;9.90;;;6.17;;
14776;SDS011;7480;43.124;25.686;2023-05-10T01:34:27;12.50;;;6.70;;
14776;SDS011;7480;43.124;25.686;2023-05-10T01:36:57;11.07;;;5.80;;
14776;SDS011;7480;43.124;25.686;2023-05-10T01:39:25;8.70;;;7.00;;
14776;SDS011;7480;43.124;25.686;2023-05-10T01:44:37;7.03;;;6.33;;
14776;SDS011;7480;43.124;25.686;2023-05-10T01:47:15;8.77;;;6.60;;
14776;SDS011;7480;43.124;25.686;2023-05-10T01:49:44;11.57;;;7.33;;
14776;SDS011;7480;43.124;25.686;2023-05-10T01:52:13;10.33;;;7.13;;
14776;SDS011;7480;43.124;25.686;2023-05-10T01:54:42;8.90;;;6.60;;
14776;SDS011;7480;43.124;25.686;2023-05-10T01:57:10;11.23;;;7.17;;
14776;SDS011;7480;43.124;25.686;2023-05-10T01:59:40;9.07;;;6.83;;
14776;SDS011;7480;43.124;25.686;2023-05-10T02:02:09;9.67;;;6.77;;
14776;SDS011;7480;43.124;25.686;2023-05-10T02:04:38;10.13;;;7.23;;
14776;SDS011;7480;43.124;25.686;2023-05-10T02:07:06;10.37;;;6.90;;
14776;SDS011;7480;43.124;25.686;2023-05-10T02:09:33;18.53;;;12.70;;
14776;SDS011;7480;43.124;25.686;2023-05-10T02:12:01;10.00;;;7.77;;
14776;SDS011;7480;43.124;25.686;2023-05-10T02:14:28;12.37;;;7.53;;
14776;SDS011;7480;43.124;25.686;2023-05-10T02:16:55;13.73;;;7.43;;
14776;SDS011;7480;43.124;25.686;2023-05-10T02:19:22;19.23;;;7.77;;
14776;SDS011;7480;43.124;25.686;2023-05-10T02:21:50;10.37;;;6.90;;
14776;SDS011;7480;43.124;25.686;2023-05-10T02:24:17;10.80;;;6.63;;
14776;SDS011;7480;43.124;25.686;2023-05-10T02:26:44;8.10;;;6.37;;
14776;SDS011;7480;43.124;25.686;2023-05-10T02:29:11;11.67;;;8.13;;
14776;SDS011;7480;43.124;25.686;2023-05-10T02:31:38;11.43;;;7.43;;
14776;SDS011;7480;43.124;25.686;2023-05-10T02:34:05;10.50;;;7.10;;
14776;SDS011;7480;43.124;25.686;2023-05-10T02:36:33;11.20;;;7.10;;
14776;SDS011;7480;43.124;25.686;2023-05-10T02:38:59;8.57;;;6.23;;
14776;SDS011;7480;43.124;25.686;2023-05-10T02:41:28;10.37;;;6.87;;
14776;SDS011;7480;43.124;25.686;2023-05-10T02:43:57;9.50;;;7.00;;
14776;SDS011;7480;43.124;25.686;2023-05-10T02:46:25;12.23;;;7.37;;
14776;SDS011;7480;43.124;25.686;2023-05-10T02:48:52;13.27;;;7.23;;
14776;SDS011;7480;43.124;25.686;2023-05-10T02:51:18;11.50;;;6.57;;
14776;SDS011;7480;43.124;25.686;2023-05-10T02:53:46;9.33;;;6.33;;
14776;SDS011;7480;43.124;25.686;2023-05-10T02:56:20;10.10;;;7.00;;
14776;SDS011;7480;43.124;25.686;2023-05-10T02:58:49;10.30;;;6.43;;
14776;SDS011;7480;43.124;25.686;2023-05-10T03:01:16;9.73;;;6.63;;
14776;SDS011;7480;43.124;25.686;2023-05-10T03:03:42;9.93;;;6.73;;
14776;SDS011;7480;43.124;25.686;2023-05-10T03:06:09;11.97;;;7.30;;
14776;SDS011;7480;43.124;25.686;2023-05-10T03:08:35;14.10;;;8.23;;
14776;SDS011;7480;43.124;25.686;2023-05-10T03:13:54;9.33;;;6.50;;
14776;SDS011;7480;43.124;25.686;2023-05-10T03:16:24;12.57;;;6.37;;
14776;SDS011;7480;43.124;25.686;2023-05-10T03:18:54;7.47;;;5.80;;
14776;SDS011;7480;43.124;25.686;2023-05-10T03:21:22;19.07;;;7.50;;
14776;SDS011;7480;43.124;25.686;2023-05-10T03:24:08;12.70;;;6.50;;
14776;SDS011;7480;43.124;25.686;2023-05-10T03:26:35;11.50;;;6.63;;
14776;SDS011;7480;43.124;25.686;2023-05-10T03:29:03;8.97;;;5.77;;
14776;SDS011;7480;43.124;25.686;2023-05-10T03:31:30;8.03;;;5.60;;
14776;SDS011;7480;43.124;25.686;2023-05-10T03:33:57;9.97;;;6.40;;
14776;SDS011;7480;43.124;25.686;2023-05-10T03:36:23;11.10;;;6.93;;
14776;SDS011;7480;43.124;25.686;2023-05-10T03:38:50;13.40;;;6.53;;
14776;SDS011;7480;43.124;25.686;2023-05-10T03:41:16;6.60;;;5.37;;
14776;SDS011;7480;43.124;25.686;2023-05-10T03:43:43;12.00;;;6.50;;
14776;SDS011;7480;43.124;25.686;2023-05-10T03:46:09;12.27;;;5.67;;
14776;SDS011;7480;43.124;25.686;2023-05-10T03:48:36;10.90;;;5.30;;
14776;SDS011;7480;43.124;25.686;2023-05-10T03:51:02;13.63;;;5.93;;
14776;SDS011;7480;43.124;25.686;2023-05-10T03:53:29;8.90;;;5.17;;
14776;SDS011;7480;43.124;25.686;2023-05-10T03:55:55;7.87;;;5.10;;
14776;SDS011;7480;43.124;25.686;2023-05-10T03:58:22;6.73;;;5.20;;
14776;SDS011;7480;43.124;25.686;2023-05-10T04:00:48;9.47;;;4.90;;
14776;SDS011;7480;43.124;25.686;2023-05-10T04:03:15;7.47;;;4.83;;
14776;SDS011;7480;43.124;25.686;2023-05-10T04:05:42;5.67;;;4.67;;
14776;SDS011;7480;43.124;25.686;2023-05-10T04:08:08;6.67;;;4.60;;
14776;SDS011;7480;43.124;25.686;2023-05-10T04:10:35;6.10;;;4.70;;
14776;SDS011;7480;43.124;25.686;2023-05-10T04:13:02;6.70;;;4.70;;
14776;SDS011;7480;43.124;25.686;2023-05-10T04:15:31;7.63;;;4.73;;
14776;SDS011;7480;43.124;25.686;2023-05-10T04:17:58;6.47;;;4.57;;
14776;SDS011;7480;43.124;25.686;2023-05-10T04:20:25;10.13;;;4.60;;
14776;SDS011;7480;43.124;25.686;2023-05-10T04:22:51;7.47;;;4.37;;
14776;SDS011;7480;43.124;25.686;2023-05-10T04:25:18;7.93;;;4.87;;
14776;SDS011;7480;43.124;25.686;2023-05-10T04:27:45;6.07;;;4.67;;
14776;SDS011;7480;43.124;25.686;2023-05-10T04:30:11;7.70;;;5.03;;
14776;SDS011;7480;43.124;25.686;2023-05-10T04:32:38;6.03;;;4.77;;
14776;SDS011;7480;43.124;25.686;2023-05-10T04:35:05;7.50;;;4.93;;
14776;SDS011;7480;43.124;25.686;2023-05-10T04:37:31;5.33;;;3.33;;
14776;SDS011;7480;43.124;25.686;2023-05-10T04:39:58;4.40;;;3.50;;
14776;SDS011;7480;43.124;25.686;2023-05-10T04:42:26;5.03;;;3.97;;
14776;SDS011;7480;43.124;25.686;2023-05-10T04:44:52;5.57;;;3.63;;
14776;SDS011;7480;43.124;25.686;2023-05-10T04:47:19;7.67;;;4.00;;
14776;SDS011;7480;43.124;25.686;2023-05-10T04:49:45;7.40;;;3.63;;
14776;SDS011;7480;43.124;25.686;2023-05-10T04:52:12;7.07;;;3.77;;
14776;SDS011;7480;43.124;25.686;2023-05-10T04:54:38;7.43;;;3.63;;
14776;SDS011;7480;43.124;25.686;2023-05-10T04:57:05;5.10;;;3.70;;
14776;SDS011;7480;43.124;25.686;2023-05-10T04:59:31;5.60;;;4.27;;
14776;SDS011;7480;43.124;25.686;2023-05-10T05:01:58;5.10;;;3.70;;
14776;SDS011;7480;43.124;25.686;2023-05-10T05:04:25;4.50;;;3.97;;
14776;SDS011;7480;43.124;25.686;2023-05-10T05:06:51;7.40;;;4.00;;
14776;SDS011;7480;43.124;25.686;2023-05-10T05:09:19;7.60;;;3.87;;
14776;SDS011;7480;43.124;25.686;2023-05-10T05:11:46;7.60;;;3.87;;
14776;SDS011;7480;43.124;25.686;2023-05-10T05:14:12;5.70;;;4.23;;
14776;SDS011;7480;43.124;25.686;2023-05-10T05:16:39;8.30;;;4.07;;
14776;SDS011;7480;43.124;25.686;2023-05-10T05:19:05;3.90;;;3.30;;
14776;SDS011;7480;43.124;25.686;2023-05-10T05:21:32;6.13;;;4.57;;
14776;SDS011;7480;43.124;25.686;2023-05-10T05:23:59;3.67;;;3.23;;
14776;SDS011;7480;43.124;25.686;2023-05-10T05:26:26;4.80;;;4.00;;
14776;SDS011;7480;43.124;25.686;2023-05-10T05:28:53;4.20;;;3.40;;
14776;SDS011;7480;43.124;25.686;2023-05-10T05:31:20;4.27;;;3.87;;
14776;SDS011;7480;43.124;25.686;2023-05-10T05:33:47;4.17;;;3.77;;
14776;SDS011;7480;43.124;25.686;2023-05-10T05:36:14;6.70;;;4.03;;
14776;SDS011;7480;43.124;25.686;2023-05-10T05:38:40;5.57;;;4.10;;
14776;SDS011;7480;43.124;25.686;2023-05-10T05:41:07;5.77;;;4.17;;
14776;SDS011;7480;43.124;25.686;2023-05-10T05:43:33;7.10;;;4.10;;
14776;SDS011;7480;43.124;25.686;2023-05-10T05:46:03;6.97;;;4.37;;
14776;SDS011;7480;43.124;25.686;2023-05-10T05:48:30;5.07;;;4.47;;
14776;SDS011;7480;43.124;25.686;2023-05-10T05:50:57;5.93;;;3.87;;
14776;SDS011;7480;43.124;25.686;2023-05-10T05:53:23;4.57;;;4.03;;
14776;SDS011;7480;43.124;25.686;2023-05-10T05:55:53;5.63;;;3.73;;
14776;SDS011;7480;43.124;25.686;2023-05-10T05:58:21;6.97;;;3.70;;
14776;SDS011;7480;43.124;25.686;2023-05-10T06:00:48;4.40;;;2.93;;
14776;SDS011;7480;43.124;25.686;2023-05-10T06:03:14;5.07;;;3.67;;
14776;SDS011;7480;43.124;25.686;2023-05-10T06:05:41;5.67;;;3.80;;
14776;SDS011;7480;43.124;25.686;2023-05-10T06:08:08;4.50;;;3.37;;
14776;SDS011;7480;43.124;25.686;2023-05-10T06:10:35;3.90;;;3.50;;
14776;SDS011;7480;43.124;25.686;2023-05-10T06:13:01;4.63;;;3.20;;
14776;SDS011;7480;43.124;25.686;2023-05-10T06:15:28;4.43;;;3.23;;
14776;SDS011;7480;43.124;25.686;2023-05-10T06:17:55;4.00;;;3.47;;
14776;SDS011;7480;43.124;25.686;2023-05-10T06:20:21;6.00;;;4.10;;
14776;SDS011;7480;43.124;25.686;2023-05-10T06:22:48;3.90;;;3.47;;
14776;SDS011;7480;43.124;25.686;2023-05-10T06:25:14;3.23;;;2.90;;
14776;SDS011;7480;43.124;25.686;2023-05-10T06:27:44;3.53;;;3.07;;
14776;SDS011;7480;43.124;25.686;2023-05-10T06:30:16;4.10;;;3.17;;
14776;SDS011;7480;43.124;25.686;2023-05-10T06:32:42;4.57;;;3.37;;
14776;SDS011;7480;43.124;25.686;2023-05-10T06:35:10;5.13;;;3.10;;
14776;SDS011;7480;43.124;25.686;2023-05-10T06:37:36;5.13;;;3.03;;
14776;SDS011;7480;43.124;25.686;2023-05-10T06:40:03;2.53;;;2.33;;
14776;SDS011;7480;43.124;25.686;2023-05-10T06:42:30;5.07;;;3.37;;
14776;SDS011;7480;43.124;25.686;2023-05-10T06:44:56;3.70;;;2.47;;
14776;SDS011;7480;43.124;25.686;2023-05-10T06:47:23;4.97;;;3.13;;
14776;SDS011;7480;43.124;25.686;2023-05-10T06:49:49;7.43;;;4.43;;
14776;SDS011;7480;43.124;25.686;2023-05-10T06:52:16;4.20;;;2.83;;
14776;SDS011;7480;43.124;25.686;2023-05-10T06:54:42;4.40;;;3.33;;
14776;SDS011;7480;43.124;25.686;2023-05-10T06:57:09;7.03;;;3.03;;
14776;SDS011;7480;43.124;25.686;2023-05-10T06:59:48;6.33;;;3.87;;
14776;SDS011;7480;43.124;25.686;2023-05-10T07:02:15;3.00;;;2.50;;
14776;SDS011;7480;43.124;25.686;2023-05-10T07:04:41;5.57;;;2.67;;
14776;SDS011;7480;43.124;25.686;2023-05-10T07:07:08;3.37;;;3.00;;
14776;SDS011;7480;43.124;25.686;2023-05-10T07:09:35;3.60;;;2.90;;
14776;SDS011;7480;43.124;25.686;2023-05-10T07:12:01;3.27;;;2.93;;
14776;SDS011;7480;43.124;25.686;2023-05-10T07:14:28;3.30;;;2.67;;
14776;SDS011;7480;43.124;25.686;2023-05-10T07:16:54;4.07;;;2.40;;
14776;SDS011;7480;43.124;25.686;2023-05-10T07:19:21;2.30;;;2.10;;
14776;SDS011;7480;43.124;25.686;2023-05-10T07:21:48;4.03;;;2.40;;
14776;SDS011;7480;43.124;25.686;2023-05-10T07:24:14;5.03;;;2.97;;
14776;SDS011;7480;43.124;25.686;2023-05-10T07:26:41;3.17;;;2.87;;
14776;SDS011;7480;43.124;25.686;2023-05-10T07:29:07;5.47;;;2.77;;
14776;SDS011;7480;43.124;25.686;2023-05-10T07:31:34;2.53;;;2.23;;
14776;SDS011;7480;43.124;25.686;2023-05-10T07:34:01;2.37;;;2.17;;
14776;SDS011;7480;43.124;25.686;2023-05-10T07:36:27;3.70;;;2.40;;
14776;SDS011;7480;43.124;25.686;2023-05-10T07:38:54;3.07;;;2.27;;
14776;SDS011;7480;43.124;25.686;2023-05-10T07:41:20;2.60;;;2.30;;
14776;SDS011;7480;43.124;25.686;2023-05-10T07:43:47;3.57;;;2.40;;
14776;SDS011;7480;43.124;25.686;2023-05-10T07:46:13;4.03;;;2.47;;
14776;SDS011;7480;43.124;25.686;2023-05-10T07:48:40;2.43;;;2.13;;
14776;SDS011;7480;43.124;25.686;2023-05-10T07:51:07;3.23;;;2.80;;
14776;SDS011;7480;43.124;25.686;2023-05-10T07:53:35;3.47;;;2.77;;
14776;SDS011;7480;43.124;25.686;2023-05-10T07:56:19;3.63;;;2.20;;
14776;SDS011;7480;43.124;25.686;2023-05-10T07:58:46;3.80;;;2.00;;
14776;SDS011;7480;43.124;25.686;2023-05-10T08:01:12;2.50;;;2.13;;
14776;SDS011;7480;43.124;25.686;2023-05-10T08:03:39;2.40;;;2.20;;
14776;SDS011;7480;43.124;25.686;2023-05-10T08:06:05;2.53;;;2.03;;
14776;SDS011;7480;43.124;25.686;2023-05-10T08:08:32;2.97;;;2.57;;
14776;SDS011;7480;43.124;25.686;2023-05-10T08:10:58;3.40;;;2.70;;
14776;SDS011;7480;43.124;25.686;2023-05-10T08:13:25;4.23;;;2.40;;
14776;SDS011;7480;43.124;25.686;2023-05-10T08:15:51;2.50;;;2.30;;
14776;SDS011;7480;43.124;25.686;2023-05-10T08:18:19;5.43;;;2.63;;
14776;SDS011;7480;43.124;25.686;2023-05-10T08:20:47;2.80;;;2.33;;
14776;SDS011;7480;43.124;25.686;2023-05-10T08:23:13;3.37;;;2.83;;
14776;SDS011;7480;43.124;25.686;2023-05-10T08:25:40;5.00;;;2.17;;
14776;SDS011;7480;43.124;25.686;2023-05-10T08:28:07;3.53;;;2.10;;
14776;SDS011;7480;43.124;25.686;2023-05-10T08:30:37;4.00;;;2.60;;
14776;SDS011;7480;43.124;25.686;2023-05-10T08:33:03;3.17;;;2.40;;
14776;SDS011;7480;43.124;25.686;2023-05-10T08:35:30;3.97;;;2.60;;
14776;SDS011;7480;43.124;25.686;2023-05-10T08:37:57;4.30;;;2.23;;
14776;SDS011;7480;43.124;25.686;2023-05-10T08:40:23;5.10;;;2.37;;
14776;SDS011;7480;43.124;25.686;2023-05-10T08:43:12;6.93;;;2.43;;
14776;SDS011;7480;43.124;25.686;2023-05-10T08:45:38;2.40;;;2.20;;
14776;SDS011;7480;43.124;25.686;2023-05-10T08:48:09;2.95;;;2.40;;
14776;SDS011;7480;43.124;25.686;2023-05-10T08:50:36;4.37;;;2.50;;
14776;SDS011;7480;43.124;25.686;2023-05-10T08:53:05;4.90;;;1.80;;
14776;SDS011;7480;43.124;25.686;2023-05-10T08:55:32;3.53;;;2.37;;
14776;SDS011;7480;43.124;25.686;2023-05-10T08:57:59;2.47;;;2.27;;
14776;SDS011;7480;43.124;25.686;2023-05-10T09:00:26;3.10;;;1.90;;
14776;SDS011;7480;43.124;25.686;2023-05-10T09:02:54;2.63;;;2.30;;
14776;SDS011;7480;43.124;25.686;2023-05-10T09:05:21;2.30;;;1.90;;
14776;SDS011;7480;43.124;25.686;2023-05-10T09:07:47;2.40;;;2.17;;
14776;SDS011;7480;43.124;25.686;2023-05-10T09:10:14;3.53;;;2.33;;
14776;SDS011;7480;43.124;25.686;2023-05-10T09:12:41;3.20;;;2.30;;
14776;SDS011;7480;43.124;25.686;2023-05-10T09:15:10;3.10;;;1.93;;
14776;SDS011;7480;43.124;25.686;2023-05-10T09:17:40;2.90;;;1.88;;
14776;SDS011;7480;43.124;25.686;2023-05-10T09:20:07;2.57;;;2.20;;
14776;SDS011;7480;43.124;25.686;2023-05-10T09:22:34;4.07;;;2.63;;
14776;SDS011;7480;43.124;25.686;2023-05-10T09:25:08;2.70;;;2.10;;
14776;SDS011;7480;43.124;25.686;2023-05-10T09:27:35;2.50;;;2.30;;
14776;SDS011;7480;43.124;25.686;2023-05-10T09:30:02;5.40;;;2.43;;
14776;SDS011;7480;43.124;25.686;2023-05-10T09:32:39;2.30;;;2.10;;
14776;SDS011;7480;43.124;25.686;2023-05-10T09:35:09;4.67;;;2.77;;
14776;SDS011;7480;43.124;25.686;2023-05-10T09:37:36;2.33;;;2.13;;
14776;SDS011;7480;43.124;25.686;2023-05-10T09:40:06;2.53;;;2.33;;
14776;SDS011;7480;43.124;25.686;2023-05-10T09:42:34;6.77;;;2.57;;
14776;SDS011;7480;43.124;25.686;2023-05-10T09:45:03;2.50;;;2.00;;
14776;SDS011;7480;43.124;25.686;2023-05-10T09:47:34;3.50;;;2.60;;
14776;SDS011;7480;43.124;25.686;2023-05-10T09:50:01;3.30;;;2.50;;
14776;SDS011;7480;43.124;25.686;2023-05-10T09:52:31;2.83;;;2.47;;
14776;SDS011;7480;43.124;25.686;2023-05-10T09:55:11;2.00;;;1.90;;
14776;SDS011;7480;43.124;25.686;2023-05-10T09:57:38;2.87;;;2.37;;
14776;SDS011;7480;43.124;25.686;2023-05-10T10:00:05;2.20;;;2.10;;
14776;SDS011;7480;43.124;25.686;2023-05-10T10:02:32;4.30;;;2.40;;
14776;SDS011;7480;43.124;25.686;2023-05-10T10:05:02;5.40;;;2.43;;
14776;SDS011;7480;43.124;25.686;2023-05-10T10:07:32;2.17;;;1.67;;
14776;SDS011;7480;43.124;25.686;2023-05-10T10:09:59;5.30;;;2.00;;
14776;SDS011;7480;43.124;25.686;2023-05-10T10:12:26;2.20;;;2.00;;
14776;SDS011;7480;43.124;25.686;2023-05-10T10:14:53;2.30;;;2.00;;
14776;SDS011;7480;43.124;25.686;2023-05-10T10:17:21;2.77;;;1.90;;
14776;SDS011;7480;43.124;25.686;2023-05-10T10:19:47;1.67;;;1.57;;
14776;SDS011;7480;43.124;25.686;2023-05-10T10:22:14;2.93;;;2.13;;
14776;SDS011;7480;43.124;25.686;2023-05-10T10:24:41;1.83;;;1.70;;
14776;SDS011;7480;43.124;25.686;2023-05-10T10:29:47;3.33;;;2.43;;
14776;SDS011;7480;43.124;25.686;2023-05-10T10:32:28;2.33;;;2.13;;
14776;SDS011;7480;43.124;25.686;2023-05-10T10:34:56;2.13;;;1.77;;
14776;SDS011;7480;43.124;25.686;2023-05-10T10:37:23;3.57;;;1.87;;
14776;SDS011;7480;43.124;25.686;2023-05-10T10:39:50;2.90;;;1.60;;
14776;SDS011;7480;43.124;25.686;2023-05-10T10:42:43;1.70;;;1.30;;
14776;SDS011;7480;43.124;25.686;2023-05-10T10:45:12;3.57;;;2.33;;
14776;SDS011;7480;43.124;25.686;2023-05-10T10:47:39;2.23;;;2.03;;
14776;SDS011;7480;43.124;25.686;2023-05-10T10:50:06;2.20;;;2.00;;
14776;SDS011;7480;43.124;25.686;2023-05-10T10:52:37;3.20;;;1.83;;
14776;SDS011;7480;43.124;25.686;2023-05-10T10:55:14;2.27;;;2.07;;
14776;SDS011;7480;43.124;25.686;2023-05-10T10:57:54;4.27;;;2.10;;
14776;SDS011;7480;43.124;25.686;2023-05-10T11:00:30;1.77;;;1.53;;
14776;SDS011;7480;43.124;25.686;2023-05-10T11:02:59;1.60;;;1.50;;
14776;SDS011;7480;43.124;25.686;2023-05-10T11:05:36;2.00;;;1.80;;
14776;SDS011;7480;43.124;25.686;2023-05-10T11:10:35;1.80;;;1.70;;
14776;SDS011;7480;43.124;25.686;2023-05-10T11:13:02;3.20;;;1.80;;
14776;SDS011;7480;43.124;25.686;2023-05-10T11:15:35;2.20;;;2.00;;
14776;SDS011;7480;43.124;25.686;2023-05-10T11:18:18;3.00;;;1.90;;
14776;SDS011;7480;43.124;25.686;2023-05-10T11:21:08;4.27;;;1.63;;
14776;SDS011;7480;43.124;25.686;2023-05-10T11:23:32;3.43;;;2.00;;
14776;SDS011;7480;43.124;25.686;2023-05-10T11:25:59;1.40;;;1.30;;
14776;SDS011;7480;43.124;25.686;2023-05-10T11:28:27;2.40;;;1.80;;
14776;SDS011;7480;43.124;25.686;2023-05-10T11:30:54;3.27;;;1.53;;
14776;SDS011;7480;43.124;25.686;2023-05-10T11:33:21;2.20;;;1.83;;
14776;SDS011;7480;43.124;25.686;2023-05-10T11:35:47;2.13;;;1.90;;
14776;SDS011;7480;43.124;25.686;2023-05-10T11:38:14;2.17;;;1.70;;
14776;SDS011;7480;43.124;25.686;2023-05-10T11:40:41;2.73;;;1.93;;
14776;SDS011;7480;43.124;25.686;2023-05-10T11:43:08;3.03;;;1.50;;
14776;SDS011;7480;43.124;25.686;2023-05-10T11:45:35;3.73;;;1.60;;
14776;SDS011;7480;43.124;25.686;2023-05-10T11:48:02;1.70;;;1.60;;
14776;SDS011;7480;43.124;25.686;2023-05-10T11:50:28;2.40;;;2.20;;
14776;SDS011;7480;43.124;25.686;2023-05-10T11:52:55;5.63;;;2.00;;
14776;SDS011;7480;43.124;25.686;2023-05-10T11:55:22;2.53;;;1.67;;
14776;SDS011;7480;43.124;25.686;2023-05-10T11:57:53;3.07;;;1.87;;
14776;SDS011;7480;43.124;25.686;2023-05-10T12:00:20;2.03;;;1.50;;
14776;SDS011;7480;43.124;25.686;2023-05-10T12:02:48;1.80;;;1.50;;
14776;SDS011;7480;43.124;25.686;2023-05-10T12:05:14;2.03;;;1.50;;
14776;SDS011;7480;43.124;25.686;2023-05-10T12:07:41;2.23;;;1.03;;
14776;SDS011;7480;43.124;25.686;2023-05-10T12:10:08;1.67;;;1.57;;
14776;SDS011;7480;43.124;25.686;2023-05-10T12:12:42;3.57;;;2.10;;
14776;SDS011;7480;43.124;25.686;2023-05-10T12:15:19;2.60;;;1.70;;
14776;SDS011;7480;43.124;25.686;2023-05-10T12:17:46;3.17;;;2.10;;
14776;SDS011;7480;43.124;25.686;2023-05-10T12:20:19;5.53;;;3.80;;
14776;SDS011;7480;43.124;25.686;2023-05-10T12:22:50;1.90;;;1.57;;
14776;SDS011;7480;43.124;25.686;2023-05-10T12:25:17;1.60;;;1.50;;
14776;SDS011;7480;43.124;25.686;2023-05-10T12:27:51;2.40;;;2.20;;
14776;SDS011;7480;43.124;25.686;2023-05-10T12:30:21;1.60;;;1.50;;
14776;SDS011;7480;43.124;25.686;2023-05-10T12:32:48;2.03;;;1.80;;
14776;SDS011;7480;43.124;25.686;2023-05-10T12:35:15;2.10;;;1.90;;
14776;SDS011;7480;43.124;25.686;2023-05-10T12:37:42;2.33;;;1.93;;
14776;SDS011;7480;43.124;25.686;2023-05-10T12:40:10;2.27;;;1.57;;
14776;SDS011;7480;43.124;25.686;2023-05-10T12:42:37;1.80;;;1.60;;
14776;SDS011;7480;43.124;25.686;2023-05-10T12:45:04;2.20;;;1.90;;
14776;SDS011;7480;43.124;25.686;2023-05-10T12:47:31;3.30;;;1.83;;
14776;SDS011;7480;43.124;25.686;2023-05-10T12:49:59;1.87;;;1.60;;
14776;SDS011;7480;43.124;25.686;2023-05-10T12:52:30;1.85;;;1.73;;
14776;SDS011;7480;43.124;25.686;2023-05-10T12:54:58;3.40;;;1.60;;
14776;SDS011;7480;43.124;25.686;2023-05-10T12:57:25;2.47;;;1.90;;
14776;SDS011;7480;43.124;25.686;2023-05-10T12:59:51;3.70;;;2.10;;
14776;SDS011;7480;43.124;25.686;2023-05-10T13:02:18;2.27;;;1.90;;
14776;SDS011;7480;43.124;25.686;2023-05-10T13:04:45;3.23;;;2.00;;
14776;SDS011;7480;43.124;25.686;2023-05-10T13:07:16;2.53;;;2.00;;
14776;SDS011;7480;43.124;25.686;2023-05-10T13:09:42;1.97;;;1.83;;
14776;SDS011;7480;43.124;25.686;2023-05-10T13:12:09;3.07;;;1.67;;
14776;SDS011;7480;43.124;25.686;2023-05-10T13:14:36;3.00;;;1.87;;
14776;SDS011;7480;43.124;25.686;2023-05-10T13:17:02;3.00;;;2.20;;
14776;SDS011;7480;43.124;25.686;2023-05-10T13:19:29;2.60;;;1.80;;
14776;SDS011;7480;43.124;25.686;2023-05-10T13:21:55;3.37;;;1.87;;
14776;SDS011;7480;43.124;25.686;2023-05-10T13:24:22;2.20;;;2.00;;
14776;SDS011;7480;43.124;25.686;2023-05-10T13:26:49;2.43;;;1.83;;
14776;SDS011;7480;43.124;25.686;2023-05-10T13:29:15;2.83;;;2.40;;
14776;SDS011;7480;43.124;25.686;2023-05-10T13:31:44;5.53;;;2.27;;
14776;SDS011;7480;43.124;25.686;2023-05-10T13:34:11;2.30;;;2.10;;
14776;SDS011;7480;43.124;25.686;2023-05-10T13:36:37;2.40;;;1.80;;
14776;SDS011;7480;43.124;25.686;2023-05-10T13:39:04;3.20;;;2.07;;
14776;SDS011;7480;43.124;25.686;2023-05-10T13:41:31;2.20;;;2.00;;
14776;SDS011;7480;43.124;25.686;2023-05-10T13:43:58;2.33;;;2.00;;
14776;SDS011;7480;43.124;25.686;2023-05-10T13:46:24;3.17;;;2.10;;
14776;SDS011;7480;43.124;25.686;2023-05-10T13:48:51;3.13;;;2.00;;
14776;SDS011;7480;43.124;25.686;2023-05-10T13:51:17;2.47;;;1.77;;
14776;SDS011;7480;43.124;25.686;2023-05-10T13:53:44;3.57;;;2.23;;
14776;SDS011;7480;43.124;25.686;2023-05-10T13:56:10;2.63;;;1.90;;
14776;SDS011;7480;43.124;25.686;2023-05-10T13:58:37;2.03;;;1.83;;
14776;SDS011;7480;43.124;25.686;2023-05-10T14:01:03;4.17;;;1.70;;
14776;SDS011;7480;43.124;25.686;2023-05-10T14:03:31;3.03;;;2.07;;
14776;SDS011;7480;43.124;25.686;2023-05-10T14:05:58;3.43;;;2.10;;
14776;SDS011;7480;43.124;25.686;2023-05-10T14:08:25;2.23;;;2.03;;
14776;SDS011;7480;43.124;25.686;2023-05-10T14:10:53;3.33;;;2.10;;
14776;SDS011;7480;43.124;25.686;2023-05-10T14:13:19;2.10;;;1.90;;
14776;SDS011;7480;43.124;25.686;2023-05-10T14:15:46;1.90;;;1.70;;
14776;SDS011;7480;43.124;25.686;2023-05-10T14:18:12;2.33;;;2.00;;
14776;SDS011;7480;43.124;25.686;2023-05-10T14:20:39;2.40;;;2.20;;
14776;SDS011;7480;43.124;25.686;2023-05-10T14:23:06;1.90;;;1.80;;
14776;SDS011;7480;43.124;25.686;2023-05-10T14:25:34;3.72;;;1.92;;
14776;SDS011;7480;43.124;25.686;2023-05-10T14:28:01;5.93;;;2.00;;
14776;SDS011;7480;43.124;25.686;2023-05-10T14:30:27;2.23;;;2.03;;
14776;SDS011;7480;43.124;25.686;2023-05-10T14:32:54;1.60;;;1.50;;
14776;SDS011;7480;43.124;25.686;2023-05-10T14:35:20;3.07;;;2.17;;
14776;SDS011;7480;43.124;25.686;2023-05-10T14:37:47;2.10;;;1.90;;
14776;SDS011;7480;43.124;25.686;2023-05-10T14:40:14;5.33;;;1.87;;
14776;SDS011;7480;43.124;25.686;2023-05-10T14:42:42;2.00;;;1.83;;
14776;SDS011;7480;43.124;25.686;2023-05-10T14:45:08;3.63;;;2.10;;
14776;SDS011;7480;43.124;25.686;2023-05-10T14:47:35;3.60;;;2.10;;
14776;SDS011;7480;43.124;25.686;2023-05-10T14:50:02;5.93;;;2.10;;
14776;SDS011;7480;43.124;25.686;2023-05-10T14:52:29;2.10;;;1.70;;
14776;SDS011;7480;43.124;25.686;2023-05-10T14:55:13;2.03;;;1.83;;
14776;SDS011;7480;43.124;25.686;2023-05-10T14:57:39;1.90;;;1.80;;
14776;SDS011;7480;43.124;25.686;2023-05-10T15:00:06;2.13;;;1.73;;
14776;SDS011;7480;43.124;25.686;2023-05-10T15:02:33;2.20;;;2.00;;